sensor_id;sensor_type;location;lat;lon;timestamp;P1;P4;P2;P0;N10;N4;N25;N1;N05;TS
45310;SPS30;68264;51.540;5.854;2023-07-13T09:20:00;1.2;;4.37;4.26;7943.4;;4666.2;4652.4;7943.3;
45310;SPS30;68264;51.540;5.854;2023-07-13T09:33:59;1.44;;4.42;4.21;7823.4;;4542.1;4504.0;7822.6;
45310;SPS30;68264;51.540;5.854;2023-07-13T09:47:58;1.38;;4.53;4.37;8136.2;;4859.0;4844.6;8136.0;
45310;SPS30;68264;51.540;5.854;2023-07-13T10:01:58;0.54;;3.77;3.66;7053.4;;3776.3;3765.1;7053.3;
45310;SPS30;68264;51.540;5.854;2023-07-13T10:15:57;0.3;;3.55;3.5;6780.5;;3503.4;3493.0;6780.4;
45310;SPS30;68264;51.540;5.854;2023-07-13T10:29:56;0.24;;3.5;3.39;6661.4;;3384.4;3374.3;6661.3;
45310;SPS30;68264;51.540;5.854;2023-07-13T10:43:55;0.06;;3.33;3.28;6469.3;;3192.3;3182.8;6469.2;
45310;SPS30;68264;51.540;5.854;2023-07-13T10:57:54;0.01;;3.22;3.17;6291.0;;3014.0;3005.0;6290.9;
45310;SPS30;68264;51.540;5.854;2023-07-13T11:11:53;0.0;;3.28;3.22;6385.5;;3108.5;3099.2;6385.4;
45310;SPS30;68264;51.540;5.854;2023-07-13T11:26:53;0.01;;2.73;2.68;5611.7;;2334.7;2327.7;5611.6;
45310;SPS30;68264;51.540;5.854;2023-07-13T11:42:22;0.01;;3.06;3.01;6085.7;;2808.7;2800.3;6085.6;
45310;SPS30;68264;51.540;5.854;2023-07-13T11:56:41;0.01;;3.12;3.06;6156.7;;2879.6;2871.1;6156.6;
45310;SPS30;68264;51.540;5.854;2023-07-13T12:11:09;0.48;;3.5;3.17;6375.3;;3092.3;3047.2;6374.3;
45310;SPS30;68264;51.540;5.854;2023-07-13T12:25:57;0.36;;3.61;3.5;6822.2;;3545.1;3534.6;6822.1;
45310;SPS30;68264;51.540;5.854;2023-07-13T12:40:46;3.42;;6.39;6.17;10787.6;;7510.2;7487.9;10787.4;
45310;SPS30;68264;51.540;5.854;2023-07-13T12:55:34;2.4;;5.46;5.3;9493.7;;6216.4;6198.0;9493.5;
45310;SPS30;68264;51.540;5.854;2023-07-13T13:10:54;2.82;;5.84;5.68;10009.1;;6731.7;6711.7;10008.9;
45310;SPS30;68264;51.540;5.854;2023-07-13T13:26:23;2.22;;5.3;5.13;9269.8;;5992.6;5974.8;9269.7;
45310;SPS30;68264;51.540;5.854;2023-07-13T13:40:42;0.72;;3.93;3.82;7288.0;;4010.9;3999.0;7287.9;
45310;SPS30;68264;51.540;5.854;2023-07-13T13:54:42;1.68;;4.7;4.42;8192.8;;4912.0;4876.1;8192.1;
45310;SPS30;68264;51.540;5.854;2023-07-13T14:08:41;2.7;;5.73;5.57;9827.1;;6549.8;6530.3;9826.9;
45310;SPS30;68264;51.540;5.854;2023-07-13T14:22:40;2.22;;5.3;5.13;9209.5;;5932.2;5914.6;9209.3;
45310;SPS30;68264;51.540;5.854;2023-07-13T14:36:39;2.64;;5.62;5.46;9715.0;;6437.4;6416.4;9714.7;
45310;SPS30;68264;51.540;5.854;2023-07-13T14:50:38;1.92;;5.02;4.86;8838.7;;5561.5;5545.0;8838.6;
45310;SPS30;68264;51.540;5.854;2023-07-13T15:04:37;0.84;;4.04;3.93;7453.7;;4176.6;4164.2;7453.6;
45310;SPS30;68264;51.540;5.854;2023-07-13T15:18:36;0.01;;2.84;2.73;5724.8;;2447.8;2440.6;5724.8;
45310;SPS30;68264;51.540;5.854;2023-07-13T15:32:35;0.01;;2.68;2.62;5503.7;;2226.8;2220.1;5503.7;
45310;SPS30;68264;51.540;5.854;2023-07-13T15:46:34;0.01;;2.84;2.73;5672.6;;2394.5;2380.8;5672.3;
45310;SPS30;68264;51.540;5.854;2023-07-13T16:00:33;0.01;;3.01;2.84;5817.8;;2536.8;2505.9;5817.1;
45310;SPS30;68264;51.540;5.854;2023-07-13T16:14:32;0.01;;2.84;2.68;5625.0;;2345.4;2323.0;5624.5;
45310;SPS30;68264;51.540;5.854;2023-07-13T16:30:04;0.01;;2.68;2.62;5532.3;;2255.3;2248.6;5532.2;
45310;SPS30;68264;51.540;5.854;2023-07-13T16:45:34;0.01;;2.79;2.73;5680.8;;2403.8;2396.7;5680.7;
45310;SPS30;68264;51.540;5.854;2023-07-13T16:59:33;0.12;;3.22;3.06;6135.5;;2854.6;2822.9;6134.8;
45310;SPS30;68264;51.540;5.854;2023-07-13T17:13:32;0.01;;3.17;3.12;6254.6;;2977.6;2968.8;6254.6;
45310;SPS30;68264;51.540;5.854;2023-07-13T17:28:00;0.01;;2.9;2.84;5851.0;;2574.0;2566.4;5851.0;
45310;SPS30;68264;51.540;5.854;2023-07-13T17:42:19;0.0;;3.28;3.22;6394.0;;3117.0;3107.8;6394.0;
45310;SPS30;68264;51.540;5.854;2023-07-13T17:56:18;0.01;;3.22;3.12;6271.1;;2994.0;2985.1;6271.0;
45310;SPS30;68264;51.540;5.854;2023-07-13T18:10:17;0.01;;3.17;3.12;6260.2;;2983.1;2974.3;6260.1;
45310;SPS30;68264;51.540;5.854;2023-07-13T18:24:46;0.01;;3.12;3.01;6110.1;;2831.9;2815.9;6109.9;
45310;SPS30;68264;51.540;5.854;2023-07-13T18:39:05;0.0;;3.28;3.22;6411.5;;3134.4;3125.1;6411.4;
45310;SPS30;68264;51.540;5.854;2023-07-13T18:53:04;0.6;;3.82;3.71;7135.5;;3858.4;3846.9;7135.4;
45310;SPS30;68264;51.540;5.854;2023-07-13T19:07:03;0.01;;3.17;3.06;6209.2;;2932.2;2923.5;6209.1;
45310;SPS30;68264;51.540;5.854;2023-07-13T19:21:02;0.48;;3.55;3.28;6497.1;;3214.8;3173.9;6496.2;
45310;SPS30;68264;51.540;5.854;2023-07-13T19:35:01;0.36;;3.61;3.55;6870.9;;3593.8;3583.1;6870.8;
45310;SPS30;68264;51.540;5.854;2023-07-13T19:49:00;0.42;;3.66;3.55;6885.0;;3608.0;3597.2;6885.0;
45310;SPS30;68264;51.540;5.854;2023-07-13T20:03:28;0.42;;3.66;3.55;6928.0;;3650.9;3640.1;6927.9;
45310;SPS30;68264;51.540;5.854;2023-07-13T20:18:49;1.08;;4.26;4.1;7732.9;;4455.8;4442.5;7732.8;
45310;SPS30;68264;51.540;5.854;2023-07-13T20:35:21;0.6;;3.82;3.71;7151.7;;3874.6;3863.1;7151.6;
45310;SPS30;68264;51.540;5.854;2023-07-13T20:50:51;0.42;;3.66;3.55;6920.2;;3643.2;3632.4;6920.2;
45310;SPS30;68264;51.540;5.854;2023-07-13T21:04:50;1.68;;4.8;4.64;8532.8;;5255.6;5240.0;8532.7;
45310;SPS30;68264;51.540;5.854;2023-07-13T21:19:19;2.16;;5.24;5.08;9113.1;;5835.3;5815.0;9112.8;
45310;SPS30;68264;51.540;5.854;2023-07-13T21:33:38;1.86;;4.7;4.37;8086.4;;4802.3;4747.4;8085.2;
45310;SPS30;68264;51.540;5.854;2023-07-13T21:48:06;1.44;;4.59;4.42;8213.6;;4936.4;4921.7;8213.4;
45310;SPS30;68264;51.540;5.854;2023-07-13T22:02:25;2.82;;5.84;5.68;10022.1;;6744.8;6724.7;10021.9;
45310;SPS30;68264;51.540;5.854;2023-07-13T22:16:24;3.06;;6.06;5.9;10318.1;;7040.7;7019.8;10317.9;
45310;SPS30;68264;51.540;5.854;2023-07-13T22:30:52;3.67;;6.28;5.79;10215.3;;6928.9;6854.3;10213.7;
45310;SPS30;68264;51.540;5.854;2023-07-13T22:45:41;4.27;;7.15;6.93;5338.0;;2060.6;2035.0;5337.8;
45310;SPS30;68264;51.540;5.854;2023-07-13T23:00:29;3.73;;6.44;6.11;10679.7;;7397.7;7348.4;10678.8;
45310;SPS30;68264;51.540;5.854;2023-07-13T23:14:48;4.93;;7.2;6.6;4830.5;;1540.2;1439.2;4828.3;
45310;SPS30;68264;51.540;5.854;2023-07-13T23:28:47;3.85;;6.6;6.28;10908.7;;7626.8;7577.0;10907.8;
45310;SPS30;68264;51.540;5.854;2023-07-13T23:42:46;3.91;;6.82;6.6;4872.8;;1595.4;1571.2;4872.6;
45310;SPS30;68264;51.540;5.854;2023-07-13T23:56:45;4.45;;7.31;7.09;5545.3;;2267.8;2241.6;5545.0;
